« ### RJNT log 202006 ### | トップページ | 定点 富山空港 2020/7/3 fri »

2020/07/01

夜活 富山空港 2020/7/1 wed

2020年も折り返し。年初オリンピックで期待が膨らんでいたところに、武漢肺炎の襲来により、経験したことのない未曾有の事態に。自粛がやわく解除されて、本日から青組夜の便が復活するので、夜活です。

RJNT 011000Z 27007KT 9999 FEW005 BKN018 23/19 Q1003

20200701_rjnt_00ja05an

富山市に大雨警報が出てる中、市街地は平穏です。

20200701_rjnt_01ja05an

なんとか薄明の中、アプローチ。

20200701_rjnt_02ja05an

山で大量の降雨で、河は濁流です。

20200701_rjnt_03ja05an

ANA319 RJTT-RJNT JA05AN B737-781

20200701_rjnt_04toyama

4月16日以来の319到着です。

20200701_rjnt_05toyama

空ビル内には、ガイドラインが掲示されています。

20200701_rjnt_06toyama

20200701_rjnt_07ja05an

約40名ほどの搭乗。

20200701_rjnt_08ja05an

20200701_rjnt_09ja05an

ANA322 RJNT-RJTT JA05AN B737-781

20200701_rjnt_10ja05an

当面チビ3が入るようです。neoはどっか行っちゃいます。

20200701_rjnt_11ja05an

ニューノーマルは、三歩進んで一歩下がるくらいのペースなのかな。

|

« ### RJNT log 202006 ### | トップページ | 定点 富山空港 2020/7/3 fri »

富山空港」カテゴリの記事

コメント

コメントを書く



(ウェブ上には掲載しません)


コメントは記事投稿者が公開するまで表示されません。



« ### RJNT log 202006 ### | トップページ | 定点 富山空港 2020/7/3 fri »